sensor_id;sensor_type;location;lat;lon;timestamp;temperature;humidity
18141;DHT22;9196;49.194;12.526;2023-11-19T00:00:45;4.80;99.90
18141;DHT22;9196;49.194;12.526;2023-11-19T00:03:12;4.80;99.90
18141;DHT22;9196;49.194;12.526;2023-11-19T00:05:39;4.90;99.90
18141;DHT22;9196;49.194;12.526;2023-11-19T00:08:07;4.90;99.90
18141;DHT22;9196;49.194;12.526;2023-11-19T00:10:34;4.90;99.90
18141;DHT22;9196;49.194;12.526;2023-11-19T00:13:02;4.90;99.90
18141;DHT22;9196;49.194;12.526;2023-11-19T00:15:30;4.90;99.90
18141;DHT22;9196;49.194;12.526;2023-11-19T00:17:57;4.90;99.90
18141;DHT22;9196;49.194;12.526;2023-11-19T00:20:24;4.90;99.90
18141;DHT22;9196;49.194;12.526;2023-11-19T00:22:52;4.90;99.90
18141;DHT22;9196;49.194;12.526;2023-11-19T00:25:20;4.90;99.90
18141;DHT22;9196;49.194;12.526;2023-11-19T00:27:48;4.90;99.90
18141;DHT22;9196;49.194;12.526;2023-11-19T00:30:21;4.80;99.90
18141;DHT22;9196;49.194;12.526;2023-11-19T00:32:49;4.90;99.90
18141;DHT22;9196;49.194;12.526;2023-11-19T00:35:16;4.90;99.90
18141;DHT22;9196;49.194;12.526;2023-11-19T00:37:43;5.00;99.90
18141;DHT22;9196;49.194;12.526;2023-11-19T00:40:11;5.00;99.90
18141;DHT22;9196;49.194;12.526;2023-11-19T00:42:37;5.00;99.90
18141;DHT22;9196;49.194;12.526;2023-11-19T00:45:08;5.00;99.90
18141;DHT22;9196;49.194;12.526;2023-11-19T00:47:37;4.90;99.90
18141;DHT22;9196;49.194;12.526;2023-11-19T00:50:05;5.00;99.90
18141;DHT22;9196;49.194;12.526;2023-11-19T00:52:35;5.00;99.90
18141;DHT22;9196;49.194;12.526;2023-11-19T00:55:10;5.00;99.90
18141;DHT22;9196;49.194;12.526;2023-11-19T00:57:38;5.00;99.90
18141;DHT22;9196;49.194;12.526;2023-11-19T01:00:10;5.10;99.90
18141;DHT22;9196;49.194;12.526;2023-11-19T01:02:49;5.00;99.90
18141;DHT22;9196;49.194;12.526;2023-11-19T01:05:21;5.00;99.90
18141;DHT22;9196;49.194;12.526;2023-11-19T01:07:48;5.10;99.90
18141;DHT22;9196;49.194;12.526;2023-11-19T01:10:15;5.10;99.90
18141;DHT22;9196;49.194;12.526;2023-11-19T01:12:44;5.10;99.90
18141;DHT22;9196;49.194;12.526;2023-11-19T01:15:10;5.10;99.90
18141;DHT22;9196;49.194;12.526;2023-11-19T01:17:38;5.10;99.90
18141;DHT22;9196;49.194;12.526;2023-11-19T01:20:07;5.10;99.90
18141;DHT22;9196;49.194;12.526;2023-11-19T01:22:38;5.10;99.90
18141;DHT22;9196;49.194;12.526;2023-11-19T01:25:06;5.10;99.90
18141;DHT22;9196;49.194;12.526;2023-11-19T01:27:33;5.00;99.90
18141;DHT22;9196;49.194;12.526;2023-11-19T01:30:01;4.90;99.90
18141;DHT22;9196;49.194;12.526;2023-11-19T01:32:29;4.90;99.90
18141;DHT22;9196;49.194;12.526;2023-11-19T01:34:55;4.90;99.90
18141;DHT22;9196;49.194;12.526;2023-11-19T01:37:24;4.90;99.90
18141;DHT22;9196;49.194;12.526;2023-11-19T01:39:50;4.90;99.90
18141;DHT22;9196;49.194;12.526;2023-11-19T01:42:17;4.90;99.90
18141;DHT22;9196;49.194;12.526;2023-11-19T01:44:56;4.90;99.90
18141;DHT22;9196;49.194;12.526;2023-11-19T01:47:24;5.00;99.90
18141;DHT22;9196;49.194;12.526;2023-11-19T01:49:51;5.00;99.90
18141;DHT22;9196;49.194;12.526;2023-11-19T01:52:18;5.00;99.90
18141;DHT22;9196;49.194;12.526;2023-11-19T01:54:47;5.00;99.90
18141;DHT22;9196;49.194;12.526;2023-11-19T01:57:15;5.10;99.90
18141;DHT22;9196;49.194;12.526;2023-11-19T01:59:42;5.10;99.90
18141;DHT22;9196;49.194;12.526;2023-11-19T02:02:10;5.00;99.90
18141;DHT22;9196;49.194;12.526;2023-11-19T02:04:38;5.00;99.90
18141;DHT22;9196;49.194;12.526;2023-11-19T02:07:06;5.00;99.90
18141;DHT22;9196;49.194;12.526;2023-11-19T02:09:34;5.10;99.90
18141;DHT22;9196;49.194;12.526;2023-11-19T02:12:03;5.10;99.90
18141;DHT22;9196;49.194;12.526;2023-11-19T02:14:30;5.10;99.90
18141;DHT22;9196;49.194;12.526;2023-11-19T02:16:56;5.20;99.90
18141;DHT22;9196;49.194;12.526;2023-11-19T02:19:23;5.20;99.90
18141;DHT22;9196;49.194;12.526;2023-11-19T02:21:50;5.20;99.90
18141;DHT22;9196;49.194;12.526;2023-11-19T02:24:19;5.20;99.90
18141;DHT22;9196;49.194;12.526;2023-11-19T02:26:53;5.20;99.90
18141;DHT22;9196;49.194;12.526;2023-11-19T02:29:23;5.20;99.90
18141;DHT22;9196;49.194;12.526;2023-11-19T02:31:50;5.20;99.90
18141;DHT22;9196;49.194;12.526;2023-11-19T02:34:17;5.30;99.90
18141;DHT22;9196;49.194;12.526;2023-11-19T02:36:44;5.20;99.90
18141;DHT22;9196;49.194;12.526;2023-11-19T02:39:12;5.30;99.90
18141;DHT22;9196;49.194;12.526;2023-11-19T02:41:40;5.30;99.90
18141;DHT22;9196;49.194;12.526;2023-11-19T02:44:07;5.30;99.90
18141;DHT22;9196;49.194;12.526;2023-11-19T02:46:35;5.20;99.90
18141;DHT22;9196;49.194;12.526;2023-11-19T02:49:02;5.20;99.90
18141;DHT22;9196;49.194;12.526;2023-11-19T02:51:29;5.10;99.90
18141;DHT22;9196;49.194;12.526;2023-11-19T02:53:56;4.90;99.90
18141;DHT22;9196;49.194;12.526;2023-11-19T02:56:23;4.90;99.90
18141;DHT22;9196;49.194;12.526;2023-11-19T02:58:52;4.80;99.90
18141;DHT22;9196;49.194;12.526;2023-11-19T03:01:23;4.70;99.90
18141;DHT22;9196;49.194;12.526;2023-11-19T03:03:57;4.80;99.90
18141;DHT22;9196;49.194;12.526;2023-11-19T03:06:24;4.80;99.90
18141;DHT22;9196;49.194;12.526;2023-11-19T03:08:51;4.70;99.90
18141;DHT22;9196;49.194;12.526;2023-11-19T03:11:17;4.80;99.90
18141;DHT22;9196;49.194;12.526;2023-11-19T03:13:44;4.80;99.90
18141;DHT22;9196;49.194;12.526;2023-11-19T03:16:12;4.90;99.90
18141;DHT22;9196;49.194;12.526;2023-11-19T03:18:39;4.90;99.90
18141;DHT22;9196;49.194;12.526;2023-11-19T03:21:07;5.00;99.90
18141;DHT22;9196;49.194;12.526;2023-11-19T03:23:34;5.10;99.90
18141;DHT22;9196;49.194;12.526;2023-11-19T03:26:01;5.10;99.90
18141;DHT22;9196;49.194;12.526;2023-11-19T03:28:31;5.10;99.90
18141;DHT22;9196;49.194;12.526;2023-11-19T03:30:57;5.20;99.90
18141;DHT22;9196;49.194;12.526;2023-11-19T03:33:24;5.30;99.90
18141;DHT22;9196;49.194;12.526;2023-11-19T03:35:53;5.30;99.90
18141;DHT22;9196;49.194;12.526;2023-11-19T03:38:23;5.40;99.90
18141;DHT22;9196;49.194;12.526;2023-11-19T03:40:50;5.50;99.90
18141;DHT22;9196;49.194;12.526;2023-11-19T03:43:16;5.50;99.90
18141;DHT22;9196;49.194;12.526;2023-11-19T03:45:44;5.50;99.90
18141;DHT22;9196;49.194;12.526;2023-11-19T03:48:11;5.60;99.90
18141;DHT22;9196;49.194;12.526;2023-11-19T03:50:38;5.60;99.90
18141;DHT22;9196;49.194;12.526;2023-11-19T03:53:05;5.60;99.90
18141;DHT22;9196;49.194;12.526;2023-11-19T03:55:33;5.60;99.90
18141;DHT22;9196;49.194;12.526;2023-11-19T03:58:00;5.60;99.90
18141;DHT22;9196;49.194;12.526;2023-11-19T04:00:27;5.60;99.90
18141;DHT22;9196;49.194;12.526;2023-11-19T04:02:54;5.50;99.90
18141;DHT22;9196;49.194;12.526;2023-11-19T04:05:21;5.50;99.90
18141;DHT22;9196;49.194;12.526;2023-11-19T04:07:47;5.50;99.90
18141;DHT22;9196;49.194;12.526;2023-11-19T04:10:14;5.50;99.90
18141;DHT22;9196;49.194;12.526;2023-11-19T04:12:43;5.50;99.90
18141;DHT22;9196;49.194;12.526;2023-11-19T04:15:11;5.60;99.90
18141;DHT22;9196;49.194;12.526;2023-11-19T04:17:38;5.60;99.90
18141;DHT22;9196;49.194;12.526;2023-11-19T04:20:06;5.50;99.90
18141;DHT22;9196;49.194;12.526;2023-11-19T04:22:36;5.50;99.90
18141;DHT22;9196;49.194;12.526;2023-11-19T04:25:03;5.40;99.90
18141;DHT22;9196;49.194;12.526;2023-11-19T04:27:31;5.40;99.90
18141;DHT22;9196;49.194;12.526;2023-11-19T04:29:59;5.40;99.90
18141;DHT22;9196;49.194;12.526;2023-11-19T04:32:27;5.30;99.90
18141;DHT22;9196;49.194;12.526;2023-11-19T04:34:54;5.30;99.90
18141;DHT22;9196;49.194;12.526;2023-11-19T04:37:21;5.30;99.90
18141;DHT22;9196;49.194;12.526;2023-11-19T04:39:48;5.30;99.90
18141;DHT22;9196;49.194;12.526;2023-11-19T04:42:15;5.30;99.90
18141;DHT22;9196;49.194;12.526;2023-11-19T04:44:43;5.40;99.90
18141;DHT22;9196;49.194;12.526;2023-11-19T04:47:11;5.40;99.90
18141;DHT22;9196;49.194;12.526;2023-11-19T04:49:40;5.50;99.90
18141;DHT22;9196;49.194;12.526;2023-11-19T04:52:08;5.50;99.90
18141;DHT22;9196;49.194;12.526;2023-11-19T04:54:35;5.50;99.90
18141;DHT22;9196;49.194;12.526;2023-11-19T04:57:01;5.50;99.90
18141;DHT22;9196;49.194;12.526;2023-11-19T04:59:28;5.50;99.90
18141;DHT22;9196;49.194;12.526;2023-11-19T05:01:55;5.50;99.90
18141;DHT22;9196;49.194;12.526;2023-11-19T05:04:24;5.60;99.90
18141;DHT22;9196;49.194;12.526;2023-11-19T05:06:51;5.50;99.90
18141;DHT22;9196;49.194;12.526;2023-11-19T05:09:18;5.50;99.90
18141;DHT22;9196;49.194;12.526;2023-11-19T05:11:45;5.40;99.90
18141;DHT22;9196;49.194;12.526;2023-11-19T05:14:12;5.40;99.90
18141;DHT22;9196;49.194;12.526;2023-11-19T05:16:39;5.40;99.90
18141;DHT22;9196;49.194;12.526;2023-11-19T05:19:06;5.40;99.90
18141;DHT22;9196;49.194;12.526;2023-11-19T05:21:35;5.30;99.90
18141;DHT22;9196;49.194;12.526;2023-11-19T05:24:02;5.30;99.90
18141;DHT22;9196;49.194;12.526;2023-11-19T05:26:30;5.30;99.90
18141;DHT22;9196;49.194;12.526;2023-11-19T05:28:57;5.40;99.90
18141;DHT22;9196;49.194;12.526;2023-11-19T05:31:24;5.50;99.90
18141;DHT22;9196;49.194;12.526;2023-11-19T05:33:51;5.50;99.90
18141;DHT22;9196;49.194;12.526;2023-11-19T05:36:18;5.60;99.90
18141;DHT22;9196;49.194;12.526;2023-11-19T05:38:46;5.60;99.90
18141;DHT22;9196;49.194;12.526;2023-11-19T05:41:12;5.60;99.90
18141;DHT22;9196;49.194;12.526;2023-11-19T05:43:39;5.60;99.90
18141;DHT22;9196;49.194;12.526;2023-11-19T05:46:06;5.70;99.90
18141;DHT22;9196;49.194;12.526;2023-11-19T05:48:34;5.70;99.90
18141;DHT22;9196;49.194;12.526;2023-11-19T05:51:01;5.70;99.90
18141;DHT22;9196;49.194;12.526;2023-11-19T05:53:28;5.70;99.90
18141;DHT22;9196;49.194;12.526;2023-11-19T05:55:57;5.70;99.90
18141;DHT22;9196;49.194;12.526;2023-11-19T05:58:24;5.60;99.90
18141;DHT22;9196;49.194;12.526;2023-11-19T06:00:54;5.60;99.90
18141;DHT22;9196;49.194;12.526;2023-11-19T06:03:22;5.60;99.90
18141;DHT22;9196;49.194;12.526;2023-11-19T06:05:49;5.60;99.90
18141;DHT22;9196;49.194;12.526;2023-11-19T06:08:16;5.70;99.90
18141;DHT22;9196;49.194;12.526;2023-11-19T06:10:44;5.70;99.90
18141;DHT22;9196;49.194;12.526;2023-11-19T06:13:13;5.70;99.90
18141;DHT22;9196;49.194;12.526;2023-11-19T06:15:40;5.70;99.90
18141;DHT22;9196;49.194;12.526;2023-11-19T06:18:07;5.80;99.90
18141;DHT22;9196;49.194;12.526;2023-11-19T06:20:34;5.70;99.90
18141;DHT22;9196;49.194;12.526;2023-11-19T06:23:01;5.70;99.90
18141;DHT22;9196;49.194;12.526;2023-11-19T06:25:28;5.80;99.90
18141;DHT22;9196;49.194;12.526;2023-11-19T06:27:54;5.90;99.90
18141;DHT22;9196;49.194;12.526;2023-11-19T06:30:24;5.90;99.90
18141;DHT22;9196;49.194;12.526;2023-11-19T06:32:51;5.90;99.90
18141;DHT22;9196;49.194;12.526;2023-11-19T06:35:18;5.90;99.90
18141;DHT22;9196;49.194;12.526;2023-11-19T06:37:45;5.90;99.90
18141;DHT22;9196;49.194;12.526;2023-11-19T06:40:12;6.00;99.90
18141;DHT22;9196;49.194;12.526;2023-11-19T06:42:41;5.90;99.90
18141;DHT22;9196;49.194;12.526;2023-11-19T06:45:08;6.00;99.90
18141;DHT22;9196;49.194;12.526;2023-11-19T06:47:36;6.00;99.90
18141;DHT22;9196;49.194;12.526;2023-11-19T06:50:04;6.00;99.90
18141;DHT22;9196;49.194;12.526;2023-11-19T06:52:31;6.10;99.90
18141;DHT22;9196;49.194;12.526;2023-11-19T06:54:58;6.00;99.90
18141;DHT22;9196;49.194;12.526;2023-11-19T06:57:25;6.10;99.90
18141;DHT22;9196;49.194;12.526;2023-11-19T06:59:51;6.10;99.90
18141;DHT22;9196;49.194;12.526;2023-11-19T07:02:18;6.10;99.90
18141;DHT22;9196;49.194;12.526;2023-11-19T07:04:46;6.20;99.90
18141;DHT22;9196;49.194;12.526;2023-11-19T07:07:13;6.20;99.90
18141;DHT22;9196;49.194;12.526;2023-11-19T07:09:41;6.20;99.90
18141;DHT22;9196;49.194;12.526;2023-11-19T07:12:08;6.20;99.90
18141;DHT22;9196;49.194;12.526;2023-11-19T07:14:35;6.10;99.90
18141;DHT22;9196;49.194;12.526;2023-11-19T07:17:02;6.20;99.90
18141;DHT22;9196;49.194;12.526;2023-11-19T07:19:28;6.10;99.90
18141;DHT22;9196;49.194;12.526;2023-11-19T07:21:57;6.10;99.90
18141;DHT22;9196;49.194;12.526;2023-11-19T07:24:23;6.10;99.90
18141;DHT22;9196;49.194;12.526;2023-11-19T07:26:50;6.10;99.90
18141;DHT22;9196;49.194;12.526;2023-11-19T07:29:17;6.20;99.90
18141;DHT22;9196;49.194;12.526;2023-11-19T07:31:44;6.20;99.90
18141;DHT22;9196;49.194;12.526;2023-11-19T07:34:11;6.30;99.90
18141;DHT22;9196;49.194;12.526;2023-11-19T07:36:39;6.30;99.90
18141;DHT22;9196;49.194;12.526;2023-11-19T07:39:07;6.30;99.90
18141;DHT22;9196;49.194;12.526;2023-11-19T07:41:34;6.40;99.90
18141;DHT22;9196;49.194;12.526;2023-11-19T07:44:01;6.40;99.90
18141;DHT22;9196;49.194;12.526;2023-11-19T07:46:28;6.40;99.90
18141;DHT22;9196;49.194;12.526;2023-11-19T07:48:54;6.40;99.90
18141;DHT22;9196;49.194;12.526;2023-11-19T07:51:21;6.40;99.90
18141;DHT22;9196;49.194;12.526;2023-11-19T07:53:48;6.30;99.90
18141;DHT22;9196;49.194;12.526;2023-11-19T07:56:16;6.30;99.90
18141;DHT22;9196;49.194;12.526;2023-11-19T07:58:43;6.20;99.90
18141;DHT22;9196;49.194;12.526;2023-11-19T08:01:10;6.20;99.90
18141;DHT22;9196;49.194;12.526;2023-11-19T08:03:36;6.20;99.90
18141;DHT22;9196;49.194;12.526;2023-11-19T08:06:04;6.20;99.90
18141;DHT22;9196;49.194;12.526;2023-11-19T08:08:30;6.30;99.90
18141;DHT22;9196;49.194;12.526;2023-11-19T08:10:58;6.30;99.90
18141;DHT22;9196;49.194;12.526;2023-11-19T08:13:27;6.20;99.90
18141;DHT22;9196;49.194;12.526;2023-11-19T08:15:53;6.20;99.90
18141;DHT22;9196;49.194;12.526;2023-11-19T08:18:20;6.20;99.90
18141;DHT22;9196;49.194;12.526;2023-11-19T08:20:47;6.30;99.90
18141;DHT22;9196;49.194;12.526;2023-11-19T08:23:18;6.30;99.90
18141;DHT22;9196;49.194;12.526;2023-11-19T08:25:45;6.40;99.90
18141;DHT22;9196;49.194;12.526;2023-11-19T08:28:11;6.50;99.90
18141;DHT22;9196;49.194;12.526;2023-11-19T08:30:40;6.60;99.90
18141;DHT22;9196;49.194;12.526;2023-11-19T08:33:06;6.60;99.90
18141;DHT22;9196;49.194;12.526;2023-11-19T08:35:33;6.70;99.90
18141;DHT22;9196;49.194;12.526;2023-11-19T08:38:01;6.70;99.90
18141;DHT22;9196;49.194;12.526;2023-11-19T08:40:28;6.70;99.90
18141;DHT22;9196;49.194;12.526;2023-11-19T08:42:55;6.80;99.90
18141;DHT22;9196;49.194;12.526;2023-11-19T08:45:22;6.80;99.90
18141;DHT22;9196;49.194;12.526;2023-11-19T08:47:50;6.80;99.90
18141;DHT22;9196;49.194;12.526;2023-11-19T08:50:17;6.80;99.90
18141;DHT22;9196;49.194;12.526;2023-11-19T08:52:44;6.80;99.90
18141;DHT22;9196;49.194;12.526;2023-11-19T08:55:11;6.90;99.90
18141;DHT22;9196;49.194;12.526;2023-11-19T08:57:39;6.90;99.90
18141;DHT22;9196;49.194;12.526;2023-11-19T09:00:06;6.90;99.90
18141;DHT22;9196;49.194;12.526;2023-11-19T09:02:34;6.90;99.90
18141;DHT22;9196;49.194;12.526;2023-11-19T09:05:02;6.90;99.90
18141;DHT22;9196;49.194;12.526;2023-11-19T09:07:29;7.00;99.90
18141;DHT22;9196;49.194;12.526;2023-11-19T09:09:55;7.00;99.90
18141;DHT22;9196;49.194;12.526;2023-11-19T09:12:22;7.00;99.90
18141;DHT22;9196;49.194;12.526;2023-11-19T09:14:49;7.00;99.90
18141;DHT22;9196;49.194;12.526;2023-11-19T09:17:16;7.10;99.90
18141;DHT22;9196;49.194;12.526;2023-11-19T09:19:43;7.10;99.90
18141;DHT22;9196;49.194;12.526;2023-11-19T09:22:11;7.20;99.90
18141;DHT22;9196;49.194;12.526;2023-11-19T09:24:38;7.30;99.90
18141;DHT22;9196;49.194;12.526;2023-11-19T09:27:05;7.30;99.90
18141;DHT22;9196;49.194;12.526;2023-11-19T09:29:32;7.30;99.90
18141;DHT22;9196;49.194;12.526;2023-11-19T09:31:59;7.30;99.90
18141;DHT22;9196;49.194;12.526;2023-11-19T09:34:26;7.30;99.90
18141;DHT22;9196;49.194;12.526;2023-11-19T09:36:53;7.40;99.90
18141;DHT22;9196;49.194;12.526;2023-11-19T09:39:21;7.40;99.90
18141;DHT22;9196;49.194;12.526;2023-11-19T09:41:48;7.40;99.90
18141;DHT22;9196;49.194;12.526;2023-11-19T09:44:15;7.50;99.90
18141;DHT22;9196;49.194;12.526;2023-11-19T09:46:44;7.50;99.90
18141;DHT22;9196;49.194;12.526;2023-11-19T09:49:11;7.50;99.90
18141;DHT22;9196;49.194;12.526;2023-11-19T09:51:39;7.50;99.90
18141;DHT22;9196;49.194;12.526;2023-11-19T09:54:06;7.50;99.90
18141;DHT22;9196;49.194;12.526;2023-11-19T09:56:37;7.50;99.90
18141;DHT22;9196;49.194;12.526;2023-11-19T09:59:05;7.50;99.90
18141;DHT22;9196;49.194;12.526;2023-11-19T10:01:33;7.50;99.90
18141;DHT22;9196;49.194;12.526;2023-11-19T10:04:01;7.60;99.90
18141;DHT22;9196;49.194;12.526;2023-11-19T10:06:28;7.60;99.90
18141;DHT22;9196;49.194;12.526;2023-11-19T10:08:56;7.70;99.90
18141;DHT22;9196;49.194;12.526;2023-11-19T10:11:23;7.70;99.90
18141;DHT22;9196;49.194;12.526;2023-11-19T10:13:52;7.80;99.90
18141;DHT22;9196;49.194;12.526;2023-11-19T10:16:19;7.90;99.90
18141;DHT22;9196;49.194;12.526;2023-11-19T10:18:48;7.90;99.90
18141;DHT22;9196;49.194;12.526;2023-11-19T10:21:18;8.00;99.90
18141;DHT22;9196;49.194;12.526;2023-11-19T10:23:49;8.10;99.90
18141;DHT22;9196;49.194;12.526;2023-11-19T10:26:17;8.20;99.90
18141;DHT22;9196;49.194;12.526;2023-11-19T10:28:46;8.20;99.90
18141;DHT22;9196;49.194;12.526;2023-11-19T10:31:14;8.40;99.90
18141;DHT22;9196;49.194;12.526;2023-11-19T10:33:41;8.50;99.90
18141;DHT22;9196;49.194;12.526;2023-11-19T10:36:10;8.70;99.90
18141;DHT22;9196;49.194;12.526;2023-11-19T10:38:38;8.80;99.90
18141;DHT22;9196;49.194;12.526;2023-11-19T10:41:06;8.80;99.90
18141;DHT22;9196;49.194;12.526;2023-11-19T10:43:42;8.90;99.90
18141;DHT22;9196;49.194;12.526;2023-11-19T10:46:11;8.90;99.90
18141;DHT22;9196;49.194;12.526;2023-11-19T10:48:40;9.10;99.90
18141;DHT22;9196;49.194;12.526;2023-11-19T10:51:07;9.20;99.90
18141;DHT22;9196;49.194;12.526;2023-11-19T10:53:37;9.30;99.90
18141;DHT22;9196;49.194;12.526;2023-11-19T10:56:09;9.40;99.90
18141;DHT22;9196;49.194;12.526;2023-11-19T10:58:38;9.60;99.90
18141;DHT22;9196;49.194;12.526;2023-11-19T11:01:14;9.60;99.90
18141;DHT22;9196;49.194;12.526;2023-11-19T11:03:46;9.70;99.90
18141;DHT22;9196;49.194;12.526;2023-11-19T11:06:13;9.70;99.90
18141;DHT22;9196;49.194;12.526;2023-11-19T11:08:40;9.70;99.90
18141;DHT22;9196;49.194;12.526;2023-11-19T11:11:08;9.80;99.90
18141;DHT22;9196;49.194;12.526;2023-11-19T11:13:42;9.80;99.90
18141;DHT22;9196;49.194;12.526;2023-11-19T11:16:09;9.90;99.90
18141;DHT22;9196;49.194;12.526;2023-11-19T11:18:36;9.90;99.90
18141;DHT22;9196;49.194;12.526;2023-11-19T11:21:06;10.00;99.90
18141;DHT22;9196;49.194;12.526;2023-11-19T11:23:59;10.00;99.90
18141;DHT22;9196;49.194;12.526;2023-11-19T11:26:48;10.00;99.90
18141;DHT22;9196;49.194;12.526;2023-11-19T11:29:24;10.00;99.90
18141;DHT22;9196;49.194;12.526;2023-11-19T11:32:04;10.00;99.90
18141;DHT22;9196;49.194;12.526;2023-11-19T11:34:49;10.00;99.90
18141;DHT22;9196;49.194;12.526;2023-11-19T11:37:26;10.00;99.90
18141;DHT22;9196;49.194;12.526;2023-11-19T11:39:57;10.10;99.90
18141;DHT22;9196;49.194;12.526;2023-11-19T11:42:35;10.10;99.90
18141;DHT22;9196;49.194;12.526;2023-11-19T11:45:04;10.10;99.90
18141;DHT22;9196;49.194;12.526;2023-11-19T11:48:11;10.10;99.90
18141;DHT22;9196;49.194;12.526;2023-11-19T11:50:56;10.10;99.90
18141;DHT22;9196;49.194;12.526;2023-11-19T11:53:25;10.20;99.90
18141;DHT22;9196;49.194;12.526;2023-11-19T11:55:53;10.20;99.90
18141;DHT22;9196;49.194;12.526;2023-11-19T11:58:20;10.20;99.90
18141;DHT22;9196;49.194;12.526;2023-11-19T12:00:48;10.20;99.90
18141;DHT22;9196;49.194;12.526;2023-11-19T12:03:20;10.50;99.90
18141;DHT22;9196;49.194;12.526;2023-11-19T12:05:48;10.90;99.90
18141;DHT22;9196;49.194;12.526;2023-11-19T12:08:19;11.20;99.90
18141;DHT22;9196;49.194;12.526;2023-11-19T12:10:49;11.20;99.90
18141;DHT22;9196;49.194;12.526;2023-11-19T12:13:17;11.20;99.90
18141;DHT22;9196;49.194;12.526;2023-11-19T12:16:07;11.10;99.90
18141;DHT22;9196;49.194;12.526;2023-11-19T12:18:34;11.10;99.90
18141;DHT22;9196;49.194;12.526;2023-11-19T12:21:01;11.10;99.90
18141;DHT22;9196;49.194;12.526;2023-11-19T12:23:29;11.00;99.90
18141;DHT22;9196;49.194;12.526;2023-11-19T12:25:58;11.00;99.90
18141;DHT22;9196;49.194;12.526;2023-11-19T12:28:25;11.00;99.90
18141;DHT22;9196;49.194;12.526;2023-11-19T12:30:53;11.00;99.90
18141;DHT22;9196;49.194;12.526;2023-11-19T12:33:20;11.10;99.90
18141;DHT22;9196;49.194;12.526;2023-11-19T12:35:48;11.50;99.90
18141;DHT22;9196;49.194;12.526;2023-11-19T12:38:18;11.50;99.90
18141;DHT22;9196;49.194;12.526;2023-11-19T12:40:45;11.50;99.90
18141;DHT22;9196;49.194;12.526;2023-11-19T12:43:22;11.50;99.90
18141;DHT22;9196;49.194;12.526;2023-11-19T12:45:49;11.60;99.90
18141;DHT22;9196;49.194;12.526;2023-11-19T12:48:16;11.70;99.90
18141;DHT22;9196;49.194;12.526;2023-11-19T12:50:52;11.70;99.90
18141;DHT22;9196;49.194;12.526;2023-11-19T12:53:19;11.60;99.90
18141;DHT22;9196;49.194;12.526;2023-11-19T12:55:46;11.60;99.90
18141;DHT22;9196;49.194;12.526;2023-11-19T13:01:07;11.60;99.90
18141;DHT22;9196;49.194;12.526;2023-11-19T13:03:36;11.90;99.90
18141;DHT22;9196;49.194;12.526;2023-11-19T13:06:05;11.90;99.90
18141;DHT22;9196;49.194;12.526;2023-11-19T13:08:37;12.10;99.90
18141;DHT22;9196;49.194;12.526;2023-11-19T13:11:05;12.40;99.90
18141;DHT22;9196;49.194;12.526;2023-11-19T13:13:33;12.50;99.90
18141;DHT22;9196;49.194;12.526;2023-11-19T13:16:06;12.30;99.90
18141;DHT22;9196;49.194;12.526;2023-11-19T13:18:34;12.10;99.90
18141;DHT22;9196;49.194;12.526;2023-11-19T13:21:02;12.30;99.90
18141;DHT22;9196;49.194;12.526;2023-11-19T13:23:30;12.30;99.90
18141;DHT22;9196;49.194;12.526;2023-11-19T13:25:57;12.30;99.90
18141;DHT22;9196;49.194;12.526;2023-11-19T13:28:24;12.40;99.90
18141;DHT22;9196;49.194;12.526;2023-11-19T13:30:52;12.50;99.90
18141;DHT22;9196;49.194;12.526;2023-11-19T13:33:22;12.60;99.90
18141;DHT22;9196;49.194;12.526;2023-11-19T13:35:49;12.80;99.90
18141;DHT22;9196;49.194;12.526;2023-11-19T13:38:16;13.00;99.90
18141;DHT22;9196;49.194;12.526;2023-11-19T13:40:42;12.80;99.90
18141;DHT22;9196;49.194;12.526;2023-11-19T13:43:09;12.70;99.90
18141;DHT22;9196;49.194;12.526;2023-11-19T13:45:37;12.60;99.90
18141;DHT22;9196;49.194;12.526;2023-11-19T13:48:05;12.50;99.90
18141;DHT22;9196;49.194;12.526;2023-11-19T13:50:33;12.80;99.90
18141;DHT22;9196;49.194;12.526;2023-11-19T13:53:02;13.00;99.90
18141;DHT22;9196;49.194;12.526;2023-11-19T13:55:30;13.20;99.90
18141;DHT22;9196;49.194;12.526;2023-11-19T13:57:57;13.20;99.90
18141;DHT22;9196;49.194;12.526;2023-11-19T14:00:24;13.10;99.90
18141;DHT22;9196;49.194;12.526;2023-11-19T14:02:50;12.90;99.90
18141;DHT22;9196;49.194;12.526;2023-11-19T14:05:18;13.00;99.90
18141;DHT22;9196;49.194;12.526;2023-11-19T14:07:46;13.30;99.90
18141;DHT22;9196;49.194;12.526;2023-11-19T14:10:14;13.50;99.90
18141;DHT22;9196;49.194;12.526;2023-11-19T14:12:41;13.40;99.90
18141;DHT22;9196;49.194;12.526;2023-11-19T14:15:09;13.40;99.90
18141;DHT22;9196;49.194;12.526;2023-11-19T14:17:38;13.50;99.90
18141;DHT22;9196;49.194;12.526;2023-11-19T14:20:06;13.40;99.90
18141;DHT22;9196;49.194;12.526;2023-11-19T14:22:39;13.30;99.90
18141;DHT22;9196;49.194;12.526;2023-11-19T14:25:08;13.00;99.90
18141;DHT22;9196;49.194;12.526;2023-11-19T14:27:36;12.70;99.90
18141;DHT22;9196;49.194;12.526;2023-11-19T14:30:06;12.60;99.90
18141;DHT22;9196;49.194;12.526;2023-11-19T14:32:33;12.40;99.90
18141;DHT22;9196;49.194;12.526;2023-11-19T14:35:00;12.40;99.90
18141;DHT22;9196;49.194;12.526;2023-11-19T14:37:27;12.30;99.90
18141;DHT22;9196;49.194;12.526;2023-11-19T14:39:54;12.30;99.90
18141;DHT22;9196;49.194;12.526;2023-11-19T14:42:23;12.30;99.90
18141;DHT22;9196;49.194;12.526;2023-11-19T14:44:50;12.20;99.90
18141;DHT22;9196;49.194;12.526;2023-11-19T14:47:18;12.20;99.90
18141;DHT22;9196;49.194;12.526;2023-11-19T14:49:45;12.20;99.90
18141;DHT22;9196;49.194;12.526;2023-11-19T14:52:12;12.10;99.90
18141;DHT22;9196;49.194;12.526;2023-11-19T14:54:39;12.10;99.90
18141;DHT22;9196;49.194;12.526;2023-11-19T14:57:06;12.20;99.90
18141;DHT22;9196;49.194;12.526;2023-11-19T14:59:36;12.10;99.90
18141;DHT22;9196;49.194;12.526;2023-11-19T15:02:03;12.10;99.90
18141;DHT22;9196;49.194;12.526;2023-11-19T15:04:31;12.10;99.90
18141;DHT22;9196;49.194;12.526;2023-11-19T15:06:58;12.10;99.90
18141;DHT22;9196;49.194;12.526;2023-11-19T15:09:25;12.10;99.90
18141;DHT22;9196;49.194;12.526;2023-11-19T15:11:53;12.00;99.90
18141;DHT22;9196;49.194;12.526;2023-11-19T15:14:20;12.10;99.90
18141;DHT22;9196;49.194;12.526;2023-11-19T15:16:48;12.00;99.90
18141;DHT22;9196;49.194;12.526;2023-11-19T15:19:17;12.00;99.90
18141;DHT22;9196;49.194;12.526;2023-11-19T15:21:45;11.90;99.90
18141;DHT22;9196;49.194;12.526;2023-11-19T15:24:12;11.80;99.90
18141;DHT22;9196;49.194;12.526;2023-11-19T15:26:39;11.70;99.90
18141;DHT22;9196;49.194;12.526;2023-11-19T15:29:06;11.70;99.90
18141;DHT22;9196;49.194;12.526;2023-11-19T15:31:32;11.70;99.90
18141;DHT22;9196;49.194;12.526;2023-11-19T15:34:01;11.70;99.90
18141;DHT22;9196;49.194;12.526;2023-11-19T15:36:28;11.70;99.90
18141;DHT22;9196;49.194;12.526;2023-11-19T15:38:55;11.60;99.90
18141;DHT22;9196;49.194;12.526;2023-11-19T15:41:22;11.60;99.90
18141;DHT22;9196;49.194;12.526;2023-11-19T15:43:49;11.50;99.90
18141;DHT22;9196;49.194;12.526;2023-11-19T15:46:16;11.50;99.90
18141;DHT22;9196;49.194;12.526;2023-11-19T15:48:42;11.40;99.90
18141;DHT22;9196;49.194;12.526;2023-11-19T15:51:10;11.30;99.90